Aérodrome :
LOGIN :

S'inscrire | Disclaimer

   EN    FR    IT 

 










Légende :    VFR   VFR Marginal   IFR   IFR Intensif   IFR Très Intensif
Visi : 
Plafond : 
>= 8 km
>= 3000ft
5 à 8 km
1000 à 3000 ft
1500m à 5 km
500 à 1000 ft
800 à 1500m
200 à 500 ft
< 800m
< 200 ft
Symboles :   Orages  Brouillard  Fortes neiges  Fortes précipitations  Vent > 20 kt
SIGMETs :   Divers  Orages  Givrage  Turbulence  Onde Orograph.  Cendres Volcan.






- Altitude de l'aérodrome : 11 ft
- Code IATA : SXL


EISG - Sligo

DERNIER METAR :
  • 251400Z 30015KT 9999 FEW040 OVC050 10/05 Q1015

METARs EXPIRÉS :
  • 251330Z 30008KT 9999 FEW014 SCT039 OVC049 08/07 Q1014
  • 251300Z 30015KT 5000 FEW014 SCT032 OVC041 08/06 Q1014
  • 251230Z 31016KT 9000 FEW014 BKN031 BKN044 09/06 Q1014
  • 251200Z 28013KT 8000 FEW009 SCT027 BKN045 08/05 Q1014
  • 251130Z 31011KT 9999 FEW043 OVC050 09/06 Q1013

TAF TAF EISG
Valide du 25 à 12h jusqu'au 25 à 21h UTC


251100Z 2512/2521 31010KT 9999 SCT030
TEMPO 2512/2517 -SHRA FEW018CB
PROB30
TEMPO 2512/2516 4000 SHRA
BECMG 2519/2521 33007KT



MET'MAP, la Météo Aéronautique d'un coup d'oeil ! - Copyright ORBIFLY Décembre 2007 - Disclaimer

ORBIFLY MET'MAP TEAM :

Programmation & Développement : Alexandra Zaïnal
Sur une idée originale de : Baudouin d'Aumeries
Assistance à la programmation : Marc-Olivier Méhu
Soutien technique & logistique : Manuel Goepfert

Contact : metmap@orbifly.com




SOURCES & CREDITS :

   NOAA